createdAt,value
2023-04-09T00:00:52.718Z,10.43
2023-04-09T00:03:59.148Z,10.45
2023-04-09T00:07:05.381Z,10.49
2023-04-09T00:10:11.632Z,10.53
2023-04-09T00:13:22.760Z,10.58
2023-04-09T00:16:24.996Z,10.61
2023-04-09T00:19:31.440Z,10.63
2023-04-09T00:22:37.592Z,10.64
2023-04-09T00:25:42.678Z,10.68
2023-04-09T00:28:48.023Z,10.68
2023-04-09T00:31:54.401Z,10.70
2023-04-09T00:35:00.137Z,10.73
2023-04-09T00:38:07.296Z,10.77
2023-04-09T00:41:14.319Z,10.79
2023-04-09T00:44:20.933Z,10.81
2023-04-09T00:47:27.607Z,10.83
2023-04-09T00:50:33.124Z,10.84
2023-04-09T00:53:39.013Z,10.86
2023-04-09T00:56:45.429Z,10.86
2023-04-09T00:59:53.804Z,10.87
2023-04-09T01:03:00.849Z,10.87
2023-04-09T01:06:30.755Z,10.88
2023-04-09T01:09:50.608Z,10.89
2023-04-09T01:13:35.671Z,10.90
2023-04-09T01:16:42.060Z,10.92
2023-04-09T01:20:05.870Z,10.92
2023-04-09T01:23:33.818Z,10.94
2023-04-09T01:26:53.005Z,10.95
2023-04-09T01:30:02.751Z,10.95
2023-04-09T01:33:08.942Z,10.93
2023-04-09T01:36:15.106Z,10.92
2023-04-09T01:39:22.503Z,10.90
2023-04-09T01:42:27.444Z,10.89
2023-04-09T01:45:34.448Z,10.85
2023-04-09T01:48:41.374Z,10.81
2023-04-09T01:51:47.993Z,10.76
2023-04-09T01:54:55.050Z,10.71
2023-04-09T01:58:01.306Z,10.67
2023-04-09T02:01:06.463Z,10.62
2023-04-09T02:04:19.565Z,10.54
2023-04-09T02:07:39.016Z,10.46
2023-04-09T02:10:46.417Z,10.40
2023-04-09T02:13:52.801Z,10.35
2023-04-09T02:16:58.784Z,10.30
2023-04-09T02:20:05.194Z,10.25
2023-04-09T02:23:10.563Z,10.21
2023-04-09T02:26:16.042Z,10.18
2023-04-09T02:29:23.041Z,10.14
2023-04-09T02:32:29.060Z,10.09
2023-04-09T02:35:36.866Z,10.04
2023-04-09T02:38:43.169Z,9.99
2023-04-09T02:41:51.877Z,9.97
2023-04-09T02:44:59.635Z,9.94
2023-04-09T02:48:06.191Z,9.92
2023-04-09T02:51:14.752Z,9.91
2023-04-09T02:54:21.228Z,9.89
2023-04-09T02:57:27.278Z,9.88
2023-04-09T03:00:34.984Z,9.88
2023-04-09T03:03:40.930Z,9.88
2023-04-09T03:06:48.275Z,9.88
2023-04-09T03:09:55.107Z,9.89
2023-04-09T03:13:01.145Z,9.90
2023-04-09T03:16:07.388Z,9.92
2023-04-09T03:19:14.239Z,9.94
2023-04-09T03:22:20.464Z,9.94
2023-04-09T03:25:27.736Z,9.95
2023-04-09T03:28:35.141Z,9.97
2023-04-09T03:31:41.837Z,9.97
2023-04-09T03:34:48.644Z,9.95
2023-04-09T03:37:55.585Z,9.94
2023-04-09T03:41:01.004Z,9.92
2023-04-09T03:44:08.401Z,9.91
2023-04-09T03:47:19.224Z,9.88
2023-04-09T03:50:27.735Z,9.86
2023-04-09T03:53:34.747Z,9.85
2023-04-09T03:56:41.192Z,9.86
2023-04-09T03:59:49.195Z,9.89
2023-04-09T04:02:56.845Z,9.91
2023-04-09T04:06:08.999Z,9.94
2023-04-09T04:09:34.030Z,10.01
2023-04-09T04:12:44.345Z,10.08
2023-04-09T04:15:58.824Z,10.14
2023-04-09T04:19:05.709Z,10.22
2023-04-09T04:22:13.067Z,10.29
2023-04-09T04:25:20.134Z,10.35
2023-04-09T04:28:27.604Z,10.39
2023-04-09T04:31:35.385Z,10.45
2023-04-09T04:34:42.730Z,10.51
2023-04-09T04:37:50.831Z,10.56
2023-04-09T04:40:58.204Z,10.62
2023-04-09T04:44:03.921Z,10.64
2023-04-09T04:47:13.236Z,10.70
2023-04-09T04:50:21.151Z,10.77
2023-04-09T04:53:33.019Z,10.84
2023-04-09T04:56:42.170Z,10.88
2023-04-09T05:00:05.396Z,10.96
2023-04-09T05:03:12.950Z,11.08
2023-04-09T05:06:27.063Z,11.18
2023-04-09T05:09:35.119Z,11.26
2023-04-09T05:12:40.212Z,11.34
2023-04-09T05:15:49.132Z,11.44
2023-04-09T05:18:55.415Z,11.54
2023-04-09T05:22:00.997Z,11.61
2023-04-09T05:25:06.616Z,11.73
2023-04-09T05:28:13.821Z,11.80
2023-04-09T05:31:22.222Z,11.90
2023-04-09T05:34:29.838Z,11.98
2023-04-09T05:37:37.467Z,12.09
2023-04-09T05:40:44.777Z,12.14
2023-04-09T05:43:51.549Z,12.20
2023-04-09T05:47:00.277Z,12.28
2023-04-09T05:50:09.032Z,12.39
2023-04-09T05:53:14.650Z,12.47
2023-04-09T05:56:29.654Z,12.56
2023-04-09T05:59:39.696Z,12.61
2023-04-09T06:02:47.499Z,12.58
2023-04-09T06:05:55.619Z,12.52
2023-04-09T06:09:02.225Z,12.50
2023-04-09T06:12:09.342Z,12.52
2023-04-09T06:15:15.171Z,12.58
2023-04-09T06:18:22.462Z,12.72
2023-04-09T06:21:28.520Z,12.88
2023-04-09T06:24:34.256Z,13.04
2023-04-09T06:27:40.378Z,13.16
2023-04-09T06:30:47.660Z,13.29
2023-04-09T06:33:56.096Z,13.44
2023-04-09T06:37:03.079Z,13.57
2023-04-09T06:40:08.995Z,13.67
2023-04-09T06:43:15.118Z,13.76
2023-04-09T06:46:24.725Z,13.83
2023-04-09T06:49:31.998Z,13.92
2023-04-09T06:52:39.995Z,14.09
2023-04-09T06:55:49.812Z,14.18
2023-04-09T06:58:56.502Z,14.29
2023-04-09T07:02:01.703Z,14.35
2023-04-09T07:05:08.897Z,14.42
2023-04-09T07:08:14.980Z,14.46
2023-04-09T07:11:24.952Z,14.45
2023-04-09T07:14:32.814Z,14.45
2023-04-09T07:17:40.472Z,14.52
2023-04-09T07:20:46.707Z,14.59
2023-04-09T07:23:53.612Z,14.65
2023-04-09T07:27:00.250Z,14.62
2023-04-09T07:30:06.698Z,14.55
2023-04-09T07:33:13.414Z,14.37
2023-04-09T07:36:18.953Z,14.26
2023-04-09T07:39:25.662Z,14.17
2023-04-09T07:42:33.395Z,14.09
2023-04-09T07:45:38.604Z,14.07
2023-04-09T07:48:47.144Z,13.96
2023-04-09T07:51:53.186Z,13.83
2023-04-09T07:54:59.852Z,13.67
2023-04-09T07:58:06.593Z,13.56
2023-04-09T08:01:13.850Z,13.52
2023-04-09T08:04:21.358Z,13.49
2023-04-09T08:07:27.464Z,13.49
2023-04-09T08:10:33.566Z,13.48
2023-04-09T08:13:40.417Z,13.47
2023-04-09T08:16:48.011Z,13.42
2023-04-09T08:19:54.343Z,13.39
2023-04-09T08:22:59.886Z,13.35
2023-04-09T08:26:06.880Z,13.32
2023-04-09T08:29:11.681Z,13.28
2023-04-09T08:32:18.295Z,13.22
2023-04-09T08:35:24.673Z,13.22
2023-04-09T08:38:32.391Z,13.19
2023-04-09T08:41:40.202Z,13.24
2023-04-09T08:44:46.471Z,13.30
2023-04-09T08:47:54.658Z,13.35
2023-04-09T08:51:02.366Z,13.32
2023-04-09T08:54:11.778Z,13.40
2023-04-09T08:57:21.046Z,13.43
2023-04-09T09:00:28.626Z,13.49
2023-04-09T09:03:36.738Z,13.57
2023-04-09T09:06:45.947Z,13.75
2023-04-09T09:09:52.995Z,13.93
2023-04-09T09:12:59.488Z,14.07
2023-04-09T09:16:07.052Z,14.15
2023-04-09T09:19:12.938Z,14.21
2023-04-09T09:22:21.589Z,14.21
2023-04-09T09:25:34.183Z,14.23
2023-04-09T09:28:40.626Z,14.22
2023-04-09T09:31:46.683Z,14.22
2023-04-09T09:34:52.943Z,14.19
2023-04-09T09:37:59.149Z,14.13
2023-04-09T09:41:06.879Z,14.06
2023-04-09T09:44:15.761Z,14.00
2023-04-09T09:47:23.481Z,13.93
2023-04-09T09:50:29.874Z,13.89
2023-04-09T09:53:35.447Z,13.88
2023-04-09T09:56:46.500Z,13.83
2023-04-09T09:59:55.834Z,13.75
2023-04-09T10:03:10.478Z,13.71
2023-04-09T10:06:17.127Z,13.71
2023-04-09T10:09:24.532Z,13.69
2023-04-09T10:12:35.373Z,13.65
2023-04-09T10:15:45.637Z,13.71
2023-04-09T10:18:50.768Z,13.77
2023-04-09T10:22:08.066Z,13.80
2023-04-09T10:25:14.132Z,13.82
2023-04-09T10:28:28.219Z,13.84
2023-04-09T10:31:34.657Z,13.89
2023-04-09T10:34:43.205Z,13.96
2023-04-09T10:37:49.519Z,14.05
2023-04-09T10:41:06.728Z,14.08
2023-04-09T10:44:12.678Z,14.12
2023-04-09T10:47:19.997Z,14.22
2023-04-09T10:50:37.770Z,14.33
2023-04-09T10:53:44.346Z,14.45
2023-04-09T10:56:51.114Z,14.63
2023-04-09T11:00:02.625Z,14.87
2023-04-09T11:03:22.769Z,15.17
2023-04-09T11:06:32.009Z,15.48
2023-04-09T11:09:39.643Z,15.87
2023-04-09T11:12:46.221Z,16.21
2023-04-09T11:15:52.036Z,16.47
2023-04-09T11:19:00.629Z,16.61
2023-04-09T11:22:07.002Z,16.68
2023-04-09T11:25:15.924Z,16.76
2023-04-09T11:28:22.985Z,16.82
2023-04-09T11:31:29.804Z,16.92
2023-04-09T11:34:37.136Z,16.97
2023-04-09T11:37:44.063Z,16.99
2023-04-09T11:40:57.988Z,16.98
2023-04-09T11:44:00.391Z,16.90
2023-04-09T11:47:09.734Z,17.00
2023-04-09T11:50:16.699Z,17.09
2023-04-09T11:53:37.473Z,17.07
2023-04-09T11:56:45.322Z,16.99
2023-04-09T11:59:53.751Z,16.92
2023-04-09T12:03:02.091Z,16.96
2023-04-09T12:06:08.424Z,17.04
2023-04-09T12:09:13.550Z,17.19
2023-04-09T12:12:22.728Z,17.27
2023-04-09T12:15:37.554Z,17.30
2023-04-09T12:18:42.501Z,17.31
2023-04-09T12:22:10.169Z,17.27
2023-04-09T12:25:16.277Z,17.35
2023-04-09T12:28:25.472Z,17.60
2023-04-09T12:31:31.540Z,17.66
2023-04-09T12:34:39.729Z,17.72
2023-04-09T12:37:47.727Z,17.84
2023-04-09T12:40:55.324Z,18.02
2023-04-09T12:44:00.858Z,18.07
2023-04-09T12:47:07.996Z,17.78
2023-04-09T12:50:14.078Z,17.58
2023-04-09T12:53:20.993Z,17.27
2023-04-09T12:56:29.765Z,16.90
2023-04-09T12:59:29.148Z,16.50
2023-04-09T13:02:36.433Z,16.27
2023-04-09T13:05:43.780Z,16.10
2023-04-09T13:08:50.036Z,15.96
2023-04-09T13:11:56.250Z,15.90
2023-04-09T13:15:03.772Z,15.83
2023-04-09T13:18:10.175Z,15.65
2023-04-09T13:21:16.157Z,15.51
2023-04-09T13:24:22.314Z,15.39
2023-04-09T13:27:29.222Z,15.21
2023-04-09T13:30:37.304Z,15.04
2023-04-09T13:33:43.737Z,14.89
2023-04-09T13:36:48.506Z,14.75
2023-04-09T13:39:55.025Z,14.53
2023-04-09T13:43:02.890Z,14.25
2023-04-09T13:46:11.352Z,14.04
2023-04-09T13:49:17.641Z,13.88
2023-04-09T13:52:26.839Z,13.74
2023-04-09T13:55:33.524Z,13.60
2023-04-09T13:58:40.652Z,13.56
2023-04-09T14:01:48.915Z,13.47
2023-04-09T14:04:56.963Z,13.35
2023-04-09T14:08:05.332Z,13.21
2023-04-09T14:11:11.270Z,13.16
2023-04-09T14:14:18.475Z,13.06
2023-04-09T14:17:25.680Z,12.98
2023-04-09T14:20:34.448Z,12.94
2023-04-09T14:23:43.242Z,12.87
2023-04-09T14:26:48.679Z,12.87
2023-04-09T14:29:55.786Z,12.91
2023-04-09T14:33:03.173Z,13.00
2023-04-09T14:36:09.084Z,13.05
2023-04-09T14:39:16.609Z,13.04
2023-04-09T14:42:21.627Z,13.08
2023-04-09T14:45:30.453Z,13.09
2023-04-09T14:48:38.336Z,13.14
2023-04-09T14:51:45.402Z,13.19
2023-04-09T14:54:54.235Z,13.14
2023-04-09T14:58:00.456Z,13.14
2023-04-09T15:01:06.515Z,13.13
2023-04-09T15:04:14.120Z,13.10
2023-04-09T15:07:21.834Z,13.10
2023-04-09T15:10:28.049Z,13.11
2023-04-09T15:13:33.624Z,13.11
2023-04-09T15:16:44.316Z,13.08
2023-04-09T15:19:49.833Z,13.04
2023-04-09T15:22:56.199Z,13.01
2023-04-09T15:26:03.225Z,13.01
2023-04-09T15:29:19.191Z,13.02
2023-04-09T15:32:26.310Z,13.00
2023-04-09T15:35:35.964Z,12.95
2023-04-09T15:38:42.324Z,12.91
2023-04-09T15:41:48.664Z,12.81
2023-04-09T15:44:54.913Z,12.78
2023-04-09T15:48:02.615Z,12.74
2023-04-09T15:51:09.676Z,12.73
2023-04-09T15:54:16.956Z,12.72
2023-04-09T15:57:24.352Z,12.71
2023-04-09T16:00:32.092Z,12.69
2023-04-09T16:03:40.706Z,12.64
2023-04-09T16:06:47.877Z,12.61
2023-04-09T16:09:54.254Z,12.56
2023-04-09T16:13:00.814Z,12.53
2023-04-09T16:16:09.068Z,12.53
2023-04-09T16:19:16.414Z,12.52
2023-04-09T16:22:23.479Z,12.51
2023-04-09T16:25:31.786Z,12.53
2023-04-09T16:28:38.475Z,12.54
2023-04-09T16:31:45.551Z,12.55
2023-04-09T16:34:51.364Z,12.56
2023-04-09T16:37:58.906Z,12.55
2023-04-09T16:41:04.973Z,12.54
2023-04-09T16:44:12.222Z,12.52
2023-04-09T16:47:20.190Z,12.52
2023-04-09T16:50:28.105Z,12.51
2023-04-09T16:53:33.504Z,12.50
2023-04-09T16:56:39.855Z,12.49
2023-04-09T16:59:47.102Z,12.48
2023-04-09T17:02:53.197Z,12.48
2023-04-09T17:06:01.672Z,12.46
2023-04-09T17:09:11.430Z,12.39
2023-04-09T17:12:19.314Z,12.36
2023-04-09T17:15:26.423Z,12.33
2023-04-09T17:18:34.363Z,12.28
2023-04-09T17:21:41.227Z,12.22
2023-04-09T17:24:46.190Z,12.20
2023-04-09T17:27:53.786Z,12.20
2023-04-09T17:30:59.863Z,12.18
2023-04-09T17:34:06.933Z,12.20
2023-04-09T17:37:14.943Z,12.21
2023-04-09T17:40:26.248Z,12.21
2023-04-09T17:43:35.734Z,12.20
2023-04-09T17:46:43.452Z,12.17
2023-04-09T17:49:49.882Z,12.17
2023-04-09T17:52:57.497Z,12.15
2023-04-09T17:56:04.334Z,12.15
2023-04-09T17:59:10.147Z,12.13
2023-04-09T18:02:16.759Z,12.12
2023-04-09T18:05:25.490Z,12.10
2023-04-09T18:08:32.251Z,12.09
2023-04-09T18:11:40.696Z,12.08
2023-04-09T18:14:46.454Z,12.07
2023-04-09T18:17:53.798Z,12.05
2023-04-09T18:20:59.894Z,12.01
2023-04-09T18:24:06.741Z,12.01
2023-04-09T18:27:15.386Z,11.99
2023-04-09T18:30:23.027Z,11.97
2023-04-09T18:33:29.834Z,11.93
2023-04-09T18:36:35.948Z,11.90
2023-04-09T18:39:43.245Z,11.91
2023-04-09T18:42:48.437Z,11.89
2023-04-09T18:45:54.755Z,11.88
2023-04-09T18:49:02.176Z,11.87
2023-04-09T18:52:12.568Z,11.85
2023-04-09T18:55:18.988Z,11.84
2023-04-09T18:58:24.346Z,11.83
2023-04-09T19:01:31.252Z,11.82
2023-04-09T19:04:39.804Z,11.81
2023-04-09T19:07:46.667Z,11.79
2023-04-09T19:10:54.082Z,11.77
2023-04-09T19:14:00.536Z,11.74
2023-04-09T19:17:08.917Z,11.71
2023-04-09T19:20:15.869Z,11.69
2023-04-09T19:23:21.100Z,11.68
2023-04-09T19:26:28.103Z,11.66
2023-04-09T19:29:34.599Z,11.60
2023-04-09T19:32:42.188Z,11.58
2023-04-09T19:35:48.106Z,11.56
2023-04-09T19:38:54.456Z,11.56
2023-04-09T19:42:00.999Z,11.56
2023-04-09T19:45:09.888Z,11.54
2023-04-09T19:48:16.120Z,11.52
2023-04-09T19:51:22.491Z,11.52
2023-04-09T19:54:28.489Z,11.51
2023-04-09T19:57:34.838Z,11.50
2023-04-09T20:00:44.491Z,11.48
2023-04-09T20:03:52.638Z,11.47
2023-04-09T20:06:59.077Z,11.45
2023-04-09T20:10:05.911Z,11.44
2023-04-09T20:13:14.897Z,11.43
2023-04-09T20:16:21.766Z,11.41
2023-04-09T20:19:29.206Z,11.39
2023-04-09T20:22:36.422Z,11.40
2023-04-09T20:25:43.818Z,11.41
2023-04-09T20:28:50.869Z,11.42
2023-04-09T20:31:59.061Z,11.45
2023-04-09T20:35:06.014Z,11.48
2023-04-09T20:38:11.862Z,11.49
2023-04-09T20:41:17.087Z,11.49
2023-04-09T20:44:23.506Z,11.50
2023-04-09T20:47:30.743Z,11.54
2023-04-09T20:50:38.037Z,11.55
2023-04-09T20:53:45.685Z,11.56
2023-04-09T20:56:51.122Z,11.56
2023-04-09T20:59:59.616Z,11.51
2023-04-09T21:03:07.060Z,11.48
2023-04-09T21:06:14.047Z,11.48
2023-04-09T21:09:20.668Z,11.51
2023-04-09T21:12:27.542Z,11.53
2023-04-09T21:15:34.772Z,11.52
2023-04-09T21:18:40.965Z,11.52
2023-04-09T21:21:50.883Z,11.53
2023-04-09T21:24:56.862Z,11.55
2023-04-09T21:28:04.772Z,11.55
2023-04-09T21:31:11.654Z,11.55
2023-04-09T21:34:17.749Z,11.54
2023-04-09T21:37:24.761Z,11.54
2023-04-09T21:40:30.223Z,11.52
2023-04-09T21:43:39.777Z,11.50
2023-04-09T21:46:44.645Z,11.51
2023-04-09T21:49:50.184Z,11.52
2023-04-09T21:52:56.086Z,11.53
2023-04-09T21:56:04.675Z,11.52
2023-04-09T21:59:09.343Z,11.50
2023-04-09T22:02:15.466Z,11.49
2023-04-09T22:05:22.016Z,11.48
2023-04-09T22:08:29.166Z,11.47
2023-04-09T22:11:35.121Z,11.46
2023-04-09T22:14:42.461Z,11.44
2023-04-09T22:17:48.923Z,11.45
2023-04-09T22:20:54.732Z,11.46
2023-04-09T22:24:00.758Z,11.44
2023-04-09T22:27:08.412Z,11.45
2023-04-09T22:30:16.573Z,11.44
2023-04-09T22:33:22.227Z,11.45
2023-04-09T22:36:28.526Z,11.44
2023-04-09T22:39:34.898Z,11.43
2023-04-09T22:42:41.367Z,11.43
2023-04-09T22:45:48.706Z,11.42
2023-04-09T22:49:04.183Z,11.39
2023-04-09T22:52:04.623Z,11.39
2023-04-09T22:55:11.550Z,11.38
2023-04-09T22:58:17.086Z,11.37
2023-04-09T23:01:25.502Z,11.37
2023-04-09T23:04:31.875Z,11.35
2023-04-09T23:07:38.196Z,11.31
2023-04-09T23:10:44.032Z,11.30
2023-04-09T23:13:50.182Z,11.29
2023-04-09T23:16:55.045Z,11.28
2023-04-09T23:20:01.600Z,11.28
2023-04-09T23:23:08.221Z,11.27
2023-04-09T23:26:16.864Z,11.28
2023-04-09T23:29:23.023Z,11.30
2023-04-09T23:32:30.514Z,11.31
2023-04-09T23:35:36.073Z,11.29
2023-04-09T23:38:44.775Z,11.30
2023-04-09T23:41:51.037Z,11.29
2023-04-09T23:44:56.949Z,11.29
2023-04-09T23:48:04.400Z,11.28
2023-04-09T23:51:11.951Z,11.27
2023-04-09T23:54:17.629Z,11.26
2023-04-09T23:57:25.504Z,11.25
